createdAt,value
2023-12-15T00:03:56.358Z,49.45
2023-12-15T00:08:43.713Z,49.83
2023-12-15T00:13:33.625Z,49.45
2023-12-15T00:18:21.121Z,48.80
2023-12-15T00:23:08.321Z,65.63
2023-12-15T00:27:55.471Z,50.70
2023-12-15T00:32:45.844Z,53.45
2023-12-15T00:37:32.965Z,68.95
2023-12-15T00:42:20.200Z,55.97
2023-12-15T00:47:07.816Z,81.00
2023-12-15T00:51:58.744Z,62.42
2023-12-15T00:56:45.962Z,70.47
2023-12-15T01:01:33.045Z,62.75
2023-12-15T01:06:20.291Z,63.33
2023-12-15T01:11:10.309Z,70.13
2023-12-15T01:15:57.606Z,71.25
2023-12-15T01:20:44.777Z,69.88
2023-12-15T01:25:32.002Z,67.43
2023-12-15T01:30:21.808Z,64.25
2023-12-15T01:35:09.771Z,72.75
2023-12-15T01:39:56.993Z,72.10
2023-12-15T01:44:44.383Z,75.63
2023-12-15T01:49:34.217Z,77.63
2023-12-15T01:54:21.643Z,79.10
2023-12-15T01:59:11.444Z,76.30
2023-12-15T02:03:58.606Z,82.93
2023-12-15T02:08:48.550Z,76.55
2023-12-15T02:13:35.680Z,82.55
2023-12-15T02:18:22.826Z,73.05
2023-12-15T02:23:12.709Z,86.35
2023-12-15T02:27:59.936Z,78.80
2023-12-15T02:32:47.358Z,82.60
2023-12-15T02:37:35.027Z,83.82
2023-12-15T02:42:28.076Z,92.55
2023-12-15T02:47:15.191Z,99.50
2023-12-15T02:52:02.480Z,87.93
2023-12-15T02:57:04.880Z,90.38
2023-12-15T03:01:54.729Z,88.00
2023-12-15T03:06:41.921Z,84.20
2023-12-15T03:11:29.117Z,83.68
2023-12-15T03:16:16.521Z,79.97
2023-12-15T03:21:07.292Z,81.18
2023-12-15T03:25:54.775Z,85.00
2023-12-15T03:30:42.039Z,89.85
2023-12-15T03:35:29.217Z,100.43
2023-12-15T03:40:18.971Z,95.82
2023-12-15T03:45:07.644Z,87.55
2023-12-15T03:49:54.892Z,86.97
2023-12-15T03:54:42.073Z,85.88
2023-12-15T03:59:32.062Z,91.38
2023-12-15T04:04:19.609Z,90.13
2023-12-15T04:09:06.964Z,86.72
2023-12-15T04:13:54.150Z,88.88
2023-12-15T04:18:43.943Z,85.25
2023-12-15T04:23:31.236Z,89.40
2023-12-15T04:28:18.477Z,88.20
2023-12-15T04:33:05.761Z,89.97
2023-12-15T04:37:55.713Z,92.97
2023-12-15T04:42:43.091Z,91.03
2023-12-15T04:47:30.348Z,85.13
2023-12-15T04:52:17.556Z,92.72
2023-12-15T04:57:07.481Z,87.28
2023-12-15T05:01:54.591Z,88.90
2023-12-15T05:06:41.853Z,94.65
2023-12-15T05:11:29.057Z,88.13
2023-12-15T05:16:18.929Z,83.75
2023-12-15T05:21:06.925Z,98.50
2023-12-15T05:25:54.275Z,78.95
2023-12-15T05:30:41.897Z,84.47
2023-12-15T05:35:31.685Z,86.32
2023-12-15T05:40:18.949Z,83.25
2023-12-15T05:45:07.201Z,84.85
2023-12-15T05:49:54.487Z,78.72
2023-12-15T05:54:44.413Z,74.72
2023-12-15T05:59:31.683Z,75.30
2023-12-15T06:04:19.029Z,76.93
2023-12-15T06:09:06.130Z,71.72
2023-12-15T06:13:57.308Z,67.15
2023-12-15T06:18:44.876Z,69.45
2023-12-15T06:23:32.068Z,63.85
2023-12-15T06:28:19.230Z,60.75
2023-12-15T06:33:09.679Z,70.50
2023-12-15T06:37:56.928Z,60.55
2023-12-15T06:42:44.055Z,61.33
2023-12-15T06:47:31.291Z,54.28
2023-12-15T06:52:21.146Z,50.83
2023-12-15T06:57:08.422Z,55.30
2023-12-15T07:01:55.616Z,53.90
2023-12-15T07:06:42.885Z,49.58
2023-12-15T07:11:32.802Z,55.20
2023-12-15T07:16:20.033Z,49.03
2023-12-15T07:21:07.850Z,46.67
2023-12-15T07:25:55.120Z,43.58
2023-12-15T07:30:45.155Z,56.05
2023-12-15T07:35:33.495Z,51.65
2023-12-15T07:40:20.926Z,63.72
2023-12-15T07:45:14.465Z,44.83
2023-12-15T07:50:05.386Z,46.50
2023-12-15T07:54:54.184Z,36.75
2023-12-15T07:59:42.965Z,37.50
2023-12-15T08:04:32.566Z,40.95
2023-12-15T08:09:22.520Z,33.60
2023-12-15T08:14:09.711Z,39.13
2023-12-15T08:18:57.076Z,29.33
2023-12-15T08:23:44.295Z,30.80
2023-12-15T08:28:34.112Z,30.70
2023-12-15T08:33:21.298Z,29.98
2023-12-15T08:38:08.925Z,28.38
2023-12-15T08:42:56.093Z,35.00
2023-12-15T08:47:46.062Z,34.38
2023-12-15T08:52:33.456Z,29.38
2023-12-15T08:57:20.688Z,29.38
2023-12-15T09:02:07.993Z,25.58
2023-12-15T09:06:57.773Z,31.80
2023-12-15T09:11:45.087Z,30.73
2023-12-15T09:16:32.287Z,24.30
2023-12-15T09:21:19.620Z,29.90
2023-12-15T09:26:09.501Z,30.20
2023-12-15T09:30:56.913Z,25.00
2023-12-15T09:35:44.632Z,27.30
2023-12-15T09:40:33.841Z,26.05
2023-12-15T09:45:23.816Z,18.38
2023-12-15T09:50:13.460Z,19.52
2023-12-15T09:55:01.012Z,26.27
2023-12-15T09:59:48.635Z,20.08
2023-12-15T10:04:38.319Z,23.70
2023-12-15T10:09:28.413Z,20.80
2023-12-15T10:14:16.374Z,16.40
2023-12-15T10:19:04.823Z,19.05
2023-12-15T10:23:54.683Z,18.52
2023-12-15T10:28:42.166Z,22.38
2023-12-15T10:33:29.720Z,18.90
2023-12-15T10:38:17.270Z,22.73
2023-12-15T10:43:08.425Z,17.13
2023-12-15T10:47:58.984Z,14.90
2023-12-15T10:52:46.497Z,21.40
2023-12-15T10:57:33.928Z,17.23
2023-12-15T11:02:26.134Z,14.95
2023-12-15T11:07:13.412Z,20.67
2023-12-15T11:12:23.353Z,14.38
2023-12-15T11:17:12.134Z,12.70
2023-12-15T11:22:08.432Z,9.70
2023-12-15T11:26:55.605Z,14.05
2023-12-15T11:31:42.760Z,17.35
2023-12-15T11:36:32.698Z,15.98
2023-12-15T11:41:22.520Z,9.93
2023-12-15T11:46:10.230Z,18.90
2023-12-15T11:50:57.604Z,11.30
2023-12-15T11:55:46.749Z,14.70
2023-12-15T12:00:36.822Z,15.98
2023-12-15T12:05:24.757Z,14.15
2023-12-15T12:10:12.093Z,11.98
2023-12-15T12:15:03.699Z,10.70
2023-12-15T12:19:53.531Z,13.00
2023-12-15T12:24:41.726Z,14.15
2023-12-15T12:29:31.716Z,16.50
2023-12-15T12:34:19.154Z,14.60
2023-12-15T12:39:09.065Z,12.20
2023-12-15T12:43:56.232Z,22.35
2023-12-15T12:48:45.806Z,12.50
2023-12-15T12:53:33.081Z,10.25
2023-12-15T12:58:23.183Z,9.93
2023-12-15T13:03:10.488Z,13.40
2023-12-15T13:08:01.442Z,12.40
2023-12-15T13:12:59.523Z,9.80
2023-12-15T13:17:49.623Z,10.45
2023-12-15T13:22:47.378Z,15.10
2023-12-15T13:27:36.032Z,10.43
2023-12-15T13:32:24.585Z,19.30
2023-12-15T13:37:18.261Z,10.80
2023-12-15T13:42:06.646Z,11.02
2023-12-15T13:46:55.191Z,13.35
2023-12-15T13:51:42.576Z,13.23
2023-12-15T13:56:32.656Z,6.50
2023-12-15T14:01:21.702Z,12.43
2023-12-15T14:06:09.253Z,6.30
2023-12-15T14:10:56.811Z,6.90
2023-12-15T14:15:48.573Z,8.25
2023-12-15T14:20:43.430Z,14.93
2023-12-15T14:25:34.061Z,9.70
2023-12-15T14:30:21.608Z,8.60
2023-12-15T14:35:32.127Z,6.75
2023-12-15T14:40:21.431Z,13.70
2023-12-15T14:45:15.606Z,7.50
2023-12-15T14:50:04.561Z,9.82
2023-12-15T14:55:00.965Z,8.77
2023-12-15T14:59:52.978Z,11.23
2023-12-15T15:04:47.858Z,8.57
2023-12-15T15:09:41.266Z,11.55
2023-12-15T15:14:31.380Z,10.05
2023-12-15T15:19:22.155Z,10.02
2023-12-15T15:24:09.840Z,6.40
2023-12-15T15:29:00.480Z,9.50
2023-12-15T15:33:54.389Z,8.93
2023-12-15T15:38:42.068Z,10.25
2023-12-15T15:43:34.062Z,6.60
2023-12-15T15:48:34.952Z,8.60
2023-12-15T15:53:54.301Z,11.95
2023-12-15T15:58:45.028Z,9.93
2023-12-15T16:03:46.210Z,9.25
2023-12-15T16:08:54.285Z,7.80
2023-12-15T16:13:41.801Z,11.75
2023-12-15T16:18:30.467Z,15.48
2023-12-15T16:23:17.726Z,7.85
2023-12-15T16:28:11.569Z,11.70
2023-12-15T16:33:01.281Z,7.55
2023-12-15T16:37:50.924Z,9.98
2023-12-15T16:42:47.502Z,8.65
2023-12-15T16:47:46.498Z,8.82
2023-12-15T16:52:36.173Z,10.30
2023-12-15T16:57:23.481Z,9.43
2023-12-15T17:02:13.147Z,9.85
2023-12-15T17:07:05.565Z,9.63
2023-12-15T17:11:55.486Z,10.27
2023-12-15T17:16:42.615Z,11.73
2023-12-15T17:21:29.903Z,17.75
2023-12-15T17:26:20.142Z,12.68
2023-12-15T17:31:07.688Z,16.75
2023-12-15T17:35:55.076Z,13.20
2023-12-15T17:40:42.465Z,15.95
2023-12-15T17:45:42.970Z,12.13
2023-12-15T17:50:30.450Z,17.65
2023-12-15T17:55:19.184Z,12.85
2023-12-15T18:00:08.476Z,21.42
2023-12-15T18:04:58.543Z,11.98
2023-12-15T18:09:46.193Z,11.93
2023-12-15T18:14:33.712Z,16.08
2023-12-15T18:19:20.848Z,15.82
2023-12-15T18:24:11.995Z,17.33
2023-12-15T18:28:59.394Z,13.98
2023-12-15T18:33:46.727Z,15.75
2023-12-15T18:38:35.199Z,14.68
2023-12-15T18:43:25.118Z,14.35
2023-12-15T18:48:12.445Z,12.20
2023-12-15T18:53:00.836Z,14.38
2023-12-15T18:57:52.291Z,18.05
2023-12-15T19:02:43.029Z,13.98
2023-12-15T19:07:30.288Z,15.88
2023-12-15T19:12:17.827Z,14.05
2023-12-15T19:17:05.289Z,15.55
2023-12-15T19:21:55.423Z,10.90
2023-12-15T19:26:43.468Z,13.00
2023-12-15T19:31:32.302Z,13.15
2023-12-15T19:36:27.338Z,16.25
2023-12-15T19:41:20.640Z,13.30
2023-12-15T19:46:09.285Z,9.40
2023-12-15T19:50:56.521Z,13.27
2023-12-15T19:55:43.603Z,8.80
2023-12-15T20:00:33.945Z,14.05
2023-12-15T20:05:21.380Z,12.85
2023-12-15T20:10:09.963Z,13.20
2023-12-15T20:14:57.148Z,21.95
2023-12-15T20:19:46.951Z,11.02
2023-12-15T20:24:35.281Z,11.38
2023-12-15T20:29:22.667Z,15.43
2023-12-15T20:34:10.021Z,19.08
2023-12-15T20:38:59.934Z,11.40
2023-12-15T20:43:47.108Z,7.97
2023-12-15T20:48:34.524Z,17.95
2023-12-15T20:53:21.725Z,15.48
2023-12-15T20:58:11.657Z,9.25
2023-12-15T21:02:58.996Z,16.25
2023-12-15T21:07:46.253Z,15.15
2023-12-15T21:12:33.372Z,10.05
2023-12-15T21:17:23.185Z,17.02
2023-12-15T21:22:10.348Z,8.93
2023-12-15T21:26:57.473Z,12.40
2023-12-15T21:31:46.745Z,9.57
2023-12-15T21:36:36.832Z,13.25
2023-12-15T21:41:24.247Z,17.13
2023-12-15T21:46:11.704Z,13.45
2023-12-15T21:51:01.238Z,13.13
2023-12-15T21:55:51.131Z,13.45
2023-12-15T22:00:38.220Z,10.75
2023-12-15T22:05:27.671Z,16.52
2023-12-15T22:10:16.281Z,11.13
2023-12-15T22:15:07.073Z,10.75
2023-12-15T22:19:54.432Z,12.98
2023-12-15T22:24:44.056Z,10.02
2023-12-15T22:29:32.609Z,12.18
2023-12-15T22:34:22.446Z,13.20
2023-12-15T22:39:09.705Z,13.43
2023-12-15T22:43:56.858Z,15.48
2023-12-15T22:48:44.146Z,13.30
2023-12-15T22:53:36.277Z,17.17
2023-12-15T22:58:25.943Z,12.18
2023-12-15T23:03:13.072Z,9.95
2023-12-15T23:08:00.303Z,16.88
2023-12-15T23:12:50.188Z,14.63
2023-12-15T23:17:37.626Z,12.15
2023-12-15T23:22:25.013Z,15.32
2023-12-15T23:27:12.194Z,9.27
2023-12-15T23:32:02.605Z,13.13
2023-12-15T23:36:49.823Z,12.10
2023-12-15T23:41:37.051Z,10.30
2023-12-15T23:46:24.368Z,14.57
2023-12-15T23:51:15.458Z,12.25
2023-12-15T23:56:04.234Z,13.73
